Time;durP1;ratioP1;P1;durP2;ratioP2;P2;SDS_P1;SDS_P2;PMS_P1;PMS_P2;Temp;Humidity;BMP_temperature;BMP_pressure;BME280_temperature;BME280_humidity;BME280_pressure;Samples;Min_cycle;Max_cycle;Signal;HPM_P1;HPM_P2
2022/09/08 00:01:14;;;;;;;9.18;5.85;;;;;;;14.89;73.40;100244.84;1637998;87;21081;-77
2022/09/08 00:03:42;;;;;;;8.55;5.42;;;;;;;14.87;73.58;100251.14;1637749;86;21158;-77
2022/09/08 00:06:16;;;;;;;7.50;5.20;;;;;;;14.83;73.80;100249.63;1641958;86;21066;-77
2022/09/08 00:08:45;;;;;;;7.58;5.47;;;;;;;14.79;73.84;100244.98;1637571;86;21037;-77
2022/09/08 00:11:19;;;;;;;9.28;5.00;;;;;;;14.77;74.07;100242.92;1632449;87;21049;-77
2022/09/08 00:13:48;;;;;;;7.12;5.40;;;;;;;14.76;74.28;100237.71;1637637;87;21077;-77
2022/09/08 00:16:20;;;;;;;10.55;6.05;;;;;;;14.73;74.40;100241.38;1637784;86;21113;-77
2022/09/08 00:18:50;;;;;;;9.88;5.45;;;;;;;14.69;74.47;100243.82;1619289;87;20970;-77
2022/09/08 00:21:20;;;;;;;10.80;5.75;;;;;;;14.66;74.47;100245.28;1637931;86;21025;-77
2022/09/08 00:23:48;;;;;;;;;;;;;;;14.62;74.60;100236.70;1640070;87;20985;-77
2022/09/08 00:26:17;;;;;;;7.45;5.20;;;;;;;14.59;74.85;100239.98;1637549;87;20518;-77
2022/09/08 00:28:44;;;;;;;7.10;5.30;;;;;;;14.55;74.75;100234.05;1637840;86;21240;-77
2022/09/08 00:31:11;;;;;;;9.88;5.95;;;;;;;14.53;74.87;100237.70;1637486;87;21054;-77
2022/09/08 00:33:38;;;;;;;8.40;5.97;;;;;;;14.49;75.03;100239.61;1637656;86;21077;-77
2022/09/08 00:36:07;;;;;;;9.08;6.30;;;;;;;14.47;75.18;100244.98;1637479;87;21065;-77
2022/09/08 00:38:34;;;;;;;9.38;5.90;;;;;;;14.45;75.21;100245.53;1637531;87;21532;-77
2022/09/08 00:41:02;;;;;;;8.68;5.47;;;;;;;14.44;75.29;100246.48;1637477;87;21089;-77
2022/09/08 00:43:42;;;;;;;9.68;6.45;;;;;;;14.43;75.45;100248.71;1637753;86;21022;-77
2022/09/08 00:46:15;;;;;;;8.28;5.67;;;;;;;14.41;75.50;100244.02;1637525;87;21466;-76
2022/09/08 00:48:50;;;;;;;8.75;5.90;;;;;;;14.38;75.63;100246.83;1636700;86;21357;-77
2022/09/08 00:51:17;;;;;;;11.12;5.58;;;;;;;14.39;75.74;100243.23;1637583;86;21014;-77
2022/09/08 00:53:47;;;;;;;9.30;5.75;;;;;;;14.36;75.86;100247.37;1637829;87;21201;-77
2022/09/08 00:56:15;;;;;;;9.43;6.20;;;;;;;14.33;75.97;100246.22;1637625;86;21085;-77
2022/09/08 00:58:42;;;;;;;11.28;6.10;;;;;;;14.33;76.09;100244.02;1637723;87;21574;-77
2022/09/08 01:01:09;;;;;;;11.10;6.10;;;;;;;14.32;76.19;100241.86;1637527;86;21026;-77
2022/09/08 01:03:41;;;;;;;7.67;5.70;;;;;;;14.29;76.32;100241.56;1637808;87;21085;-77
2022/09/08 01:14:52;;;;;;;8.20;5.80;;;;;;;14.25;76.95;100224.23;1656972;86;21574;-77
2022/09/08 01:17:23;;;;;;;7.53;5.65;;;;;;;14.25;77.08;100228.66;1630068;87;21163;-77
2022/09/08 01:19:53;;;;;;;9.18;6.15;;;;;;;14.26;77.30;100229.88;1647531;85;21061;-77
2022/09/08 01:22:53;;;;;;;9.87;6.60;;;;;;;14.27;77.50;100230.27;1648088;87;21614;-78
2022/09/08 01:25:35;;;;;;;10.75;6.75;;;;;;;14.28;77.58;100225.84;1647993;86;21078;-77
2022/09/08 01:28:13;;;;;;;10.67;5.70;;;;;;;14.29;77.65;100219.63;1625263;87;21064;-77
2022/09/08 01:30:42;;;;;;;9.98;6.30;;;;;;;14.28;77.68;100216.62;1642666;87;21084;-77
2022/09/08 01:33:11;;;;;;;9.20;5.92;;;;;;;14.29;77.79;100216.98;1647858;87;21126;-77
2022/09/08 01:35:39;;;;;;;7.40;6.20;;;;;;;14.27;77.88;100218.41;1647975;87;21092;-77
2022/09/08 01:38:08;;;;;;;8.70;5.90;;;;;;;14.30;78.18;100210.80;1648136;87;21060;-77
2022/09/08 01:40:38;;;;;;;10.95;6.37;;;;;;;14.32;78.27;100207.59;1647838;87;21066;-77
2022/09/08 01:43:09;;;;;;;10.48;6.22;;;;;;;14.35;78.45;100201.30;1630340;87;21121;-77
2022/09/08 01:45:38;;;;;;;9.30;6.62;;;;;;;14.37;78.43;100200.75;1647986;87;21143;-77
2022/09/08 01:48:06;;;;;;;17.02;6.67;;;;;;;14.39;78.42;100198.89;1648043;87;21041;-77
2022/09/08 01:50:35;;;;;;;8.35;5.85;;;;;;;14.40;78.47;100203.21;1647849;87;21033;-77
2022/09/08 01:53:02;;;;;;;10.38;6.47;;;;;;;14.40;78.39;100204.05;1648201;87;21132;-77
2022/09/08 01:55:29;;;;;;;8.38;6.40;;;;;;;14.40;78.30;100200.58;1647884;87;21021;-77
2022/09/08 01:57:56;;;;;;;8.90;6.30;;;;;;;14.39;78.32;100203.69;1648101;87;21123;-77
2022/09/08 02:00:24;;;;;;;8.43;6.35;;;;;;;14.37;78.38;100198.11;1647847;87;21045;-77
2022/09/08 02:02:51;;;;;;;8.23;6.58;;;;;;;14.36;78.43;100193.31;1648125;87;21069;-77
2022/09/08 02:05:18;;;;;;;8.40;6.47;;;;;;;14.35;78.49;100188.11;1648110;87;21037;-77
2022/09/08 02:07:45;;;;;;;10.98;6.55;;;;;;;14.33;78.54;100185.58;1648032;86;21090;-77
2022/09/08 02:10:12;;;;;;;8.68;5.60;;;;;;;14.33;78.56;100187.34;1643595;87;21298;-77
2022/09/08 02:12:39;;;;;;;10.18;6.47;;;;;;;14.32;78.62;100188.29;1638727;87;21034;-77
2022/09/08 02:15:08;;;;;;;9.85;6.35;;;;;;;14.29;78.64;100187.98;1638160;87;21089;-77
2022/09/08 02:17:35;;;;;;;10.20;6.27;;;;;;;14.25;78.65;100189.95;1638503;87;21029;-77
2022/09/08 02:20:03;;;;;;;8.13;6.15;;;;;;;14.22;78.66;100195.40;1638431;87;21073;-77
2022/09/08 02:22:32;;;;;;;9.88;5.97;;;;;;;14.19;78.88;100200.84;1638107;87;21137;-77
2022/09/08 02:24:59;;;;;;;10.65;6.87;;;;;;;14.19;79.00;100198.21;1638404;86;21018;-77
2022/09/08 02:27:26;;;;;;;9.50;6.62;;;;;;;14.19;79.18;100190.74;1638314;87;21088;-77
2022/09/08 02:29:53;;;;;;;11.35;6.87;;;;;;;14.21;79.34;100179.18;1638285;87;21085;-77
2022/09/08 02:32:20;;;;;;;10.08;6.50;;;;;;;14.22;79.37;100169.04;1638472;86;21597;-77
2022/09/08 02:34:47;;;;;;;10.08;6.80;;;;;;;14.24;79.49;100164.54;1638276;86;21311;-77
2022/09/08 02:37:15;;;;;;;9.93;7.22;;;;;;;14.24;79.39;100168.49;1637807;86;21549;-77
2022/09/08 02:39:42;;;;;;;9.98;6.58;;;;;;;14.25;79.54;100171.97;1631446;87;21070;-77
2022/09/08 02:42:10;;;;;;;8.73;6.62;;;;;;;14.24;79.51;100179.48;1638482;86;21014;-77
2022/09/08 02:44:38;;;;;;;9.38;6.90;;;;;;;14.22;79.55;100180.05;1638193;87;21343;-77
2022/09/08 02:47:06;;;;;;;10.58;7.35;;;;;;;14.23;79.67;100179.11;1638262;87;21158;-77
2022/09/08 02:49:34;;;;;;;7.92;6.65;;;;;;;14.24;79.66;100180.36;1638361;86;21018;-77
2022/09/08 02:52:01;;;;;;;10.28;7.17;;;;;;;14.22;79.60;100178.73;1638100;86;21068;-77
2022/09/08 02:54:28;;;;;;;9.93;6.90;;;;;;;14.22;79.68;100177.42;1638295;87;21125;-77
2022/09/08 02:56:55;;;;;;;11.90;7.05;;;;;;;14.23;79.85;100172.52;1638191;86;21018;-77
2022/09/08 02:59:23;;;;;;;10.93;7.55;;;;;;;14.24;79.80;100177.72;1638740;87;21981;-77
2022/09/08 03:01:50;;;;;;;12.25;8.35;;;;;;;14.24;79.69;100175.52;1638435;86;21079;-77
2022/09/08 03:04:18;;;;;;;11.15;7.87;;;;;;;14.23;79.73;100170.73;1638078;86;21030;-77
2022/09/08 03:06:45;;;;;;;10.63;7.58;;;;;;;14.22;79.77;100165.56;1638511;87;21459;-77
2022/09/08 03:09:12;;;;;;;11.53;7.40;;;;;;;14.22;79.80;100162.92;1637980;86;21077;-77
2022/09/08 03:11:39;;;;;;;11.48;7.83;;;;;;;14.20;79.84;100161.67;1637897;87;21201;-77
2022/09/08 03:14:06;;;;;;;8.58;7.20;;;;;;;14.19;79.88;100160.43;1637423;87;21517;-77
2022/09/08 03:16:33;;;;;;;10.20;6.87;;;;;;;14.19;79.99;100159.11;1637641;86;21035;-77
2022/09/08 03:19:01;;;;;;;10.30;7.78;;;;;;;14.18;80.05;100149.05;1638055;86;21471;-77
2022/09/08 03:21:27;;;;;;;10.30;7.60;;;;;;;14.19;80.31;100148.13;1637981;87;21053;-77
2022/09/08 03:23:54;;;;;;;13.20;7.90;;;;;;;14.23;80.42;100152.75;1637812;87;21118;-77
2022/09/08 03:26:24;;;;;;;10.45;7.95;;;;;;;14.24;80.44;100142.13;1637354;87;21132;-77
2022/09/08 03:28:51;;;;;;;10.32;8.30;;;;;;;14.26;80.55;100147.30;1638018;86;21485;-77
2022/09/08 03:31:20;;;;;;;12.35;9.05;;;;;;;14.29;80.65;100141.85;1637569;87;21062;-77
2022/09/08 03:33:48;;;;;;;10.25;8.70;;;;;;;14.30;80.56;100147.53;1637841;87;21065;-77
2022/09/08 03:36:17;;;;;;;11.28;8.13;;;;;;;14.31;80.57;100144.42;1638190;86;21134;-77
2022/09/08 03:38:45;;;;;;;9.93;8.55;;;;;;;14.29;80.63;100129.98;1611365;87;21614;-77
2022/09/08 03:41:15;;;;;;;11.75;8.45;;;;;;;14.29;80.65;100132.63;1637828;87;21065;-77
2022/09/08 03:43:50;;;;;;;;;;;;;;;14.29;80.57;100132.63;1640456;86;21031;-78
2022/09/08 03:46:18;;;;;;;10.98;8.28;;;;;;;14.25;80.65;100137.23;1637615;87;20564;-77
2022/09/08 03:48:45;;;;;;;11.93;8.85;;;;;;;14.22;80.49;100140.52;1637874;86;21117;-77
2022/09/08 03:51:17;;;;;;;12.90;8.85;;;;;;;14.18;80.45;100132.38;1637473;86;21073;-77
2022/09/08 03:53:45;;;;;;;13.22;8.43;;;;;;;14.15;80.54;100132.09;1637904;86;21112;-77
2022/09/08 03:56:13;;;;;;;11.80;8.40;;;;;;;14.13;80.68;100137.05;1637516;87;20947;-77
2022/09/08 03:58:41;;;;;;;10.23;8.33;;;;;;;14.11;80.84;100135.00;1637952;86;21073;-77
2022/09/08 04:01:13;;;;;;;12.75;8.70;;;;;;;14.11;81.04;100131.05;1637680;86;21983;-77
2022/09/08 04:03:41;;;;;;;12.55;8.33;;;;;;;14.10;80.99;100131.48;1634520;86;21065;-77
2022/09/08 04:06:08;;;;;;;11.80;8.38;;;;;;;14.09;81.07;100125.84;1638252;87;21089;-77
2022/09/08 04:08:35;;;;;;;15.53;9.25;;;;;;;14.07;81.00;100135.62;1638257;85;20935;-77
2022/09/08 04:11:03;;;;;;;12.33;9.80;;;;;;;14.04;80.93;100133.16;1637470;87;21081;-77
2022/09/08 04:13:30;;;;;;;13.28;8.48;;;;;;;14.00;81.04;100126.37;1637608;87;21706;-77
2022/09/08 04:15:57;;;;;;;14.80;9.73;;;;;;;13.96;80.99;100124.34;1637370;87;21513;-77
2022/09/08 04:18:24;;;;;;;11.53;9.30;;;;;;;13.94;81.18;100122.30;1614858;87;21112;-77
2022/09/08 04:21:04;;;;;;;10.40;8.33;;;;;;;13.92;81.17;100122.83;1637584;87;20970;-77
2022/09/08 04:23:32;;;;;;;9.93;8.30;;;;;;;13.89;81.14;100124.80;1637889;86;21121;-77
2022/09/08 04:26:03;;;;;;;13.05;9.35;;;;;;;13.87;81.39;100127.98;1638359;86;21259;-77
2022/09/08 04:28:33;;;;;;;12.20;9.50;;;;;;;13.87;81.52;100134.56;1637943;86;21135;-77
2022/09/08 04:31:09;;;;;;;15.70;9.33;;;;;;;13.86;81.62;100129.77;1637789;86;21092;-77
2022/09/08 04:33:36;;;;;;;10.50;9.33;;;;;;;13.83;81.56;100133.89;1637571;87;21041;-77
2022/09/08 04:36:13;;;;;;;15.72;9.35;;;;;;;13.83;81.86;100128.63;1637644;86;21033;-77
2022/09/08 04:38:41;;;;;;;11.90;9.10;;;;;;;13.83;81.97;100130.78;1637597;87;21360;-77
2022/09/08 04:41:12;;;;;;;13.10;9.73;;;;;;;13.84;82.06;100134.27;1633538;87;21093;-77
2022/09/08 04:43:40;;;;;;;11.15;8.78;;;;;;;13.86;82.31;100136.35;1628769;87;21081;-85
2022/09/08 04:46:10;;;;;;;13.15;8.80;;;;;;;13.89;82.53;100137.97;1634515;86;21070;-79
2022/09/08 04:48:39;;;;;;;12.63;9.00;;;;;;;13.93;82.69;100128.47;1637789;87;21093;-86
2022/09/08 04:51:08;;;;;;;11.97;8.97;;;;;;;13.96;82.75;100132.25;1636396;86;22029;-79
2022/09/08 04:53:36;;;;;;;12.23;9.35;;;;;;;13.99;82.89;100133.88;1636743;86;21025;-83
2022/09/08 04:56:06;;;;;;;12.13;9.60;;;;;;;14.01;82.98;100138.13;1632496;86;20938;-77
2022/09/08 04:58:36;;;;;;;13.72;9.43;;;;;;;14.05;82.97;100149.37;1634007;86;21398;-90
2022/09/08 05:01:18;;;;;;;13.68;8.93;;;;;;;14.07;83.21;100143.52;1634635;86;22273;-84
2022/09/08 05:03:46;;;;;;;13.88;9.55;;;;;;;14.12;83.23;100134.89;1634772;86;21143;-86
2022/09/08 05:06:15;;;;;;;10.85;8.70;;;;;;;14.16;83.29;100140.39;1634659;86;21093;-82
2022/09/08 05:08:48;;;;;;;14.40;9.85;;;;;;;14.17;83.30;100136.81;1634111;86;21145;-82
2022/09/08 05:11:18;;;;;;;10.20;8.70;;;;;;;14.19;83.41;100133.62;1634085;86;21081;-80
2022/09/08 05:13:45;;;;;;;11.30;9.48;;;;;;;14.23;83.48;100135.14;1634564;86;21400;-86
2022/09/08 05:16:16;;;;;;;11.40;9.65;;;;;;;14.25;83.61;100139.02;1634588;85;21133;-85
2022/09/08 05:18:50;;;;;;;12.85;10.50;;;;;;;14.29;83.73;100128.20;1635198;86;21077;-83
2022/09/08 05:21:18;;;;;;;11.60;9.88;;;;;;;14.33;83.77;100122.75;1634899;86;21101;-81
2022/09/08 05:23:47;;;;;;;12.10;10.08;;;;;;;14.39;83.91;100122.42;1634556;86;21113;-83
2022/09/08 05:26:16;;;;;;;15.28;10.78;;;;;;;14.44;84.03;100119.91;1634461;86;21153;-83
2022/09/08 05:28:44;;;;;;;17.63;10.70;;;;;;;14.50;84.06;100116.06;1635072;86;21209;-86
2022/09/08 05:31:22;;;;;;;14.05;10.50;;;;;;;14.53;83.93;100106.68;1634156;86;21081;-86
2022/09/08 05:33:51;;;;;;;15.43;11.45;;;;;;;14.57;83.90;100104.23;1634932;86;21514;-83
2022/09/08 05:36:25;;;;;;;12.68;10.58;;;;;;;14.65;83.96;100108.59;1634526;86;21183;-81
2022/09/08 05:38:52;;;;;;;14.07;10.85;;;;;;;14.71;83.90;100112.21;1633440;86;21093;-86
2022/09/08 05:41:20;;;;;;;13.90;10.93;;;;;;;14.75;83.68;100111.55;1634218;86;21867;-85
2022/09/08 05:43:47;;;;;;;17.87;11.12;;;;;;;14.80;83.39;100116.09;1634765;86;21530;-86
2022/09/08 05:46:14;;;;;;;12.13;10.55;;;;;;;14.87;83.41;100116.56;1634389;86;21555;-83
2022/09/08 05:48:41;;;;;;;12.10;10.55;;;;;;;14.95;83.36;100117.80;1634588;86;21089;-80
2022/09/08 05:51:10;;;;;;;14.25;10.65;;;;;;;15.04;83.42;100112.44;1634248;86;21630;-86
2022/09/08 05:53:38;;;;;;;12.53;11.18;;;;;;;15.12;83.35;100114.15;1635541;86;21980;-85
2022/09/08 05:56:08;;;;;;;14.23;11.10;;;;;;;15.23;83.06;100125.86;1634647;86;21057;-79
2022/09/08 05:58:36;;;;;;;15.60;10.82;;;;;;;15.30;82.95;100121.44;1634442;86;25959;-82
2022/09/08 06:01:08;;;;;;;13.30;9.83;;;;;;;15.40;83.01;100117.27;1634212;86;21089;-86
2022/09/08 06:03:36;;;;;;;14.28;10.40;;;;;;;15.51;82.67;100106.05;1634289;86;21472;-83
2022/09/08 06:06:07;;;;;;;13.48;10.45;;;;;;;15.62;82.78;100094.81;1635617;87;21141;-82
2022/09/08 06:08:36;;;;;;;15.03;10.68;;;;;;;15.74;82.62;100088.80;1635510;86;21027;-82
2022/09/08 06:11:03;;;;;;;14.30;10.55;;;;;;;15.84;82.42;100085.92;1634509;86;21132;-87
2022/09/08 06:13:32;;;;;;;14.25;9.70;;;;;;;15.93;82.07;100091.57;1634019;86;21141;-82
2022/09/08 06:16:07;;;;;;;13.53;10.55;;;;;;;15.99;81.96;100088.08;1634570;86;21157;-85
2022/09/08 06:18:40;;;;;;;14.55;10.65;;;;;;;16.15;81.69;100092.36;1640994;86;22075;-80
2022/09/08 06:21:14;;;;;;;14.53;10.88;;;;;;;16.15;81.69;100092.36;1635486;86;21100;-80
2022/09/08 06:23:41;;;;;;;13.22;10.85;;;;;;;16.21;81.41;100093.27;1634540;86;21081;-79
2022/09/08 06:26:54;;;;;;;12.68;10.68;;;;;;;16.24;81.28;100085.17;1633137;86;21116;-83
2022/09/08 06:29:38;;;;;;;12.78;10.18;;;;;;;16.36;81.20;100087.47;1634809;86;21554;-81
2022/09/08 06:32:26;;;;;;;17.55;10.50;;;;;;;16.46;81.39;100081.92;1635202;86;21152;-74
2022/09/08 06:35:21;;;;;;;15.15;10.25;;;;;;;16.55;81.11;100094.56;1634143;86;21490;-74
2022/09/08 06:38:01;;;;;;;12.55;10.30;;;;;;;16.64;80.91;100081.19;1635172;86;21579;-74
2022/09/08 06:40:46;;;;;;;;;;;;;;;16.74;80.71;100082.27;1637787;86;21658;-73
2022/09/08 06:43:35;;;;;;;15.25;10.40;;;;;;;16.84;80.50;100082.02;1634922;87;20582;-73
2022/09/08 06:46:29;;;;;;;15.58;11.30;;;;;;;16.92;80.37;100075.73;1654197;86;22143;-75
2022/09/08 06:48:56;;;;;;;14.45;10.13;;;;;;;17.02;80.15;100076.45;1653487;86;21019;-84
2022/09/08 06:51:45;;;;;;;13.15;10.70;;;;;;;17.09;79.75;100077.70;1637384;86;21984;-75
2022/09/08 06:54:39;;;;;;;14.05;10.60;;;;;;;17.16;80.00;100081.63;1632804;87;21096;-91
2022/09/08 06:57:23;;;;;;;12.60;10.80;;;;;;;17.26;79.95;100076.52;1631593;87;21778;-86
2022/09/08 07:00:11;;;;;;;14.53;11.25;;;;;;;17.37;79.90;100087.21;1652875;85;21133;-82
2022/09/08 07:03:09;;;;;;;15.95;10.72;;;;;;;17.47;79.46;100092.72;1643960;85;21105;-90
2022/09/08 07:05:44;;;;;;;11.85;10.55;;;;;;;17.55;79.04;100089.05;1636191;86;21153;-82
2022/09/08 07:08:40;;;;;;;13.18;10.93;;;;;;;17.60;78.75;100075.84;1634836;86;21092;-90
2022/09/08 07:11:57;;;;;;;14.63;10.30;;;;;;;17.67;78.60;100084.19;1640409;86;21070;-86
2022/09/08 07:14:34;;;;;;;13.68;10.50;;;;;;;17.72;78.59;100083.39;1634886;86;22225;-83
2022/09/08 07:17:43;;;;;;;16.32;11.22;;;;;;;17.80;78.41;100086.85;1634551;85;20986;-89
2022/09/08 07:20:12;;;;;;;14.53;10.73;;;;;;;17.85;78.25;100082.07;1631347;86;21104;-86
2022/09/08 07:23:21;;;;;;;14.03;10.60;;;;;;;17.93;78.28;100073.53;1635490;86;21546;-85
2022/09/08 07:26:10;;;;;;;14.75;10.48;;;;;;;18.01;78.15;100078.67;1634324;86;21550;-87
2022/09/08 07:28:41;;;;;;;13.13;11.20;;;;;;;18.13;78.25;100066.30;1634369;86;21099;-88
2022/09/08 07:31:22;;;;;;;13.48;11.18;;;;;;;18.23;77.98;100057.17;1634425;86;21097;-80
2022/09/08 07:33:55;;;;;;;13.75;11.43;;;;;;;18.32;78.02;100052.53;1634257;86;21085;-86
2022/09/08 07:36:51;;;;;;;14.93;10.68;;;;;;;18.42;77.94;100050.85;1633904;86;22034;-81
2022/09/08 07:39:42;;;;;;;15.08;10.43;;;;;;;18.53;77.82;100050.05;1633799;86;21073;-79
2022/09/08 07:42:15;;;;;;;14.47;11.33;;;;;;;18.65;77.59;100046.48;1633196;86;21137;-80
2022/09/08 07:44:43;;;;;;;13.08;10.98;;;;;;;18.72;77.23;100049.01;1635192;86;21085;-83
2022/09/08 07:47:33;;;;;;;13.95;11.10;;;;;;;18.78;76.94;100053.03;1635712;86;21137;-78
2022/09/08 07:50:54;;;;;;;16.50;11.35;;;;;;;18.84;76.80;100050.39;1635319;86;21081;-84
2022/09/08 07:53:32;;;;;;;15.88;11.18;;;;;;;18.89;76.60;100044.25;1632929;87;21346;-87
2022/09/08 07:56:17;;;;;;;11.83;10.58;;;;;;;18.97;76.35;100047.64;1636120;86;21095;-81
2022/09/08 07:59:13;;;;;;;15.78;11.60;;;;;;;19.03;76.41;100049.81;1635354;87;22130;-86
2022/09/08 08:02:01;;;;;;;14.70;11.20;;;;;;;19.09;76.28;100051.53;1635183;87;21089;-80
2022/09/08 08:04:57;;;;;;;15.18;11.33;;;;;;;19.17;76.00;100050.91;1635162;87;21069;-82
2022/09/08 08:07:33;;;;;;;14.10;10.58;;;;;;;19.23;76.17;100054.41;1635457;86;21058;-85
2022/09/08 08:10:22;;;;;;;15.53;11.48;;;;;;;19.33;76.03;100055.38;1634608;86;21906;-86
2022/09/08 08:13:06;;;;;;;14.83;11.00;;;;;;;19.42;75.77;100056.94;1635068;86;21084;-87
2022/09/08 08:15:42;;;;;;;15.98;11.18;;;;;;;19.55;75.92;100057.66;1622119;87;21089;-85
2022/09/08 08:18:36;;;;;;;14.43;10.70;;;;;;;19.71;75.74;100058.64;1636224;87;21607;-76
2022/09/08 08:21:14;;;;;;;15.20;11.40;;;;;;;19.88;75.47;100053.29;1569287;90;21110;-76
2022/09/08 08:24:19;;;;;;;14.75;10.80;;;;;;;20.05;75.38;100047.42;1568512;90;21150;-76
2022/09/08 08:27:10;;;;;;;13.25;10.85;;;;;;;20.23;75.16;100045.05;1568483;91;21154;-76
2022/09/08 08:29:45;;;;;;;15.53;9.95;;;;;;;20.39;74.75;100036.14;1568981;90;21111;-76
2022/09/08 08:32:23;;;;;;;13.78;10.43;;;;;;;20.54;74.64;100030.06;1567742;90;21155;-76
2022/09/08 08:35:23;;;;;;;13.62;10.32;;;;;;;20.63;74.01;100029.28;1568629;91;21075;-76
2022/09/08 08:37:54;;;;;;;13.50;9.70;;;;;;;20.69;73.74;100017.25;1568573;90;21321;-76
2022/09/08 08:40:47;;;;;;;16.67;10.35;;;;;;;20.77;73.73;100027.27;1568529;90;21529;-77
2022/09/08 08:43:33;;;;;;;11.57;10.10;;;;;;;20.87;73.63;100030.83;1568528;90;21743;-76
2022/09/08 08:46:14;;;;;;;13.50;9.83;;;;;;;21.02;73.67;100027.32;1567981;91;21070;-76
2022/09/08 08:49:01;;;;;;;12.95;10.03;;;;;;;21.17;73.68;100024.64;1568506;91;21236;-76
2022/09/08 08:51:53;;;;;;;13.05;10.03;;;;;;;21.33;73.51;100018.81;1569553;90;21153;-77
2022/09/08 08:54:47;;;;;;;13.18;10.13;;;;;;;21.53;73.45;100015.28;1527482;93;21117;-77
2022/09/08 08:57:50;;;;;;;11.78;9.60;;;;;;;21.71;73.19;100015.44;1607969;87;21126;-76
2022/09/08 09:00:20;;;;;;;12.65;9.80;;;;;;;21.94;72.88;100011.19;1637664;86;21026;-76
2022/09/08 09:03:09;;;;;;;13.72;10.15;;;;;;;22.11;72.39;100004.30;1638206;87;21045;-81
2022/09/08 09:06:09;;;;;;;14.55;9.73;;;;;;;22.22;72.06;99993.02;1599793;87;21118;-76
2022/09/08 09:09:16;;;;;;;12.10;9.60;;;;;;;22.38;71.62;99999.13;1636903;86;21077;-76
2022/09/08 09:12:04;;;;;;;12.00;9.55;;;;;;;22.48;71.08;99993.78;1637584;86;21085;-77
2022/09/08 09:15:09;;;;;;;12.55;9.33;;;;;;;22.62;70.82;100002.67;1637827;87;21081;-78
2022/09/08 09:18:08;;;;;;;10.72;9.15;;;;;;;22.75;70.75;100003.67;1638004;87;22150;-80
2022/09/08 09:20:52;;;;;;;13.43;9.60;;;;;;;22.92;70.40;100007.45;1638104;87;21312;-76
2022/09/08 09:23:27;;;;;;;11.63;9.33;;;;;;;23.07;70.13;99997.14;1633724;86;20954;-78
2022/09/08 09:26:22;;;;;;;16.17;8.98;;;;;;;23.23;69.95;100006.72;1636882;86;21054;-76
2022/09/08 09:29:24;;;;;;;12.78;9.90;;;;;;;23.37;69.55;99995.52;1638308;87;21049;-76
2022/09/08 09:32:01;;;;;;;15.43;10.08;;;;;;;23.51;69.22;100000.86;1637968;87;21479;-76
2022/09/08 09:35:01;;;;;;;12.75;9.68;;;;;;;23.68;68.59;99995.19;1638215;87;21126;-75
2022/09/08 09:37:43;;;;;;;12.10;9.13;;;;;;;23.77;68.18;99988.11;1638023;87;21050;-75
2022/09/08 09:40:22;;;;;;;15.15;9.93;;;;;;;23.91;67.88;99986.74;1638196;87;21057;-79
2022/09/08 09:43:10;;;;;;;11.08;9.75;;;;;;;24.02;67.37;99982.00;1638139;86;21006;-80
2022/09/08 09:45:54;;;;;;;12.00;9.43;;;;;;;24.11;67.09;99984.27;1637167;86;21287;-75
2022/09/08 09:49:01;;;;;;;12.03;10.03;;;;;;;24.24;66.62;99982.02;1637584;86;21191;-75
2022/09/08 09:51:37;;;;;;;10.68;9.08;;;;;;;24.36;66.18;99974.59;1612728;87;20977;-76
2022/09/08 09:54:34;;;;;;;11.85;9.28;;;;;;;24.51;65.87;99975.39;1636565;87;21022;-76
2022/09/08 09:57:29;;;;;;;11.85;9.00;;;;;;;24.56;65.61;99972.58;1638101;86;21081;-75
2022/09/08 10:00:05;;;;;;;12.50;9.53;;;;;;;24.63;65.45;99976.30;1632565;86;22179;-75
2022/09/08 10:02:51;;;;;;;10.82;9.73;;;;;;;24.64;64.72;99969.13;1635600;87;21176;-74
2022/09/08 10:05:47;;;;;;;10.90;9.80;;;;;;;24.58;64.37;99967.91;1636582;86;21109;-75
2022/09/08 10:08:46;;;;;;;10.80;8.98;;;;;;;24.53;64.51;99967.55;1636509;86;21559;-75
2022/09/08 10:11:55;;;;;;;13.68;8.73;;;;;;;24.54;64.53;99973.73;1618554;86;21041;-77
2022/09/08 10:14:53;;;;;;;11.22;9.75;;;;;;;24.70;64.57;99980.03;1618800;87;21026;-74
2022/09/08 10:17:54;;;;;;;14.18;9.00;;;;;;;24.93;64.31;99969.59;1637753;87;21192;-76
2022/09/08 10:21:04;;;;;;;10.90;9.08;;;;;;;25.13;64.16;99964.82;1637020;86;21057;-76
2022/09/08 10:23:45;;;;;;;12.98;9.80;;;;;;;25.40;64.05;99966.14;1637761;86;21618;-75
2022/09/08 10:26:50;;;;;;;11.03;9.03;;;;;;;25.74;63.59;99965.52;1637618;87;21136;-75
2022/09/08 10:29:51;;;;;;;12.18;9.25;;;;;;;26.00;62.96;99942.61;1637763;86;21507;-75
2022/09/08 10:32:33;;;;;;;10.90;9.00;;;;;;;26.31;62.56;99945.95;1635622;87;21357;-80
2022/09/08 10:35:41;;;;;;;10.35;9.18;;;;;;;26.63;62.06;99937.03;1631814;86;21058;-76
2022/09/08 10:38:33;;;;;;;10.65;8.78;;;;;;;26.89;61.46;99928.70;1630962;86;21059;-74
2022/09/08 10:41:25;;;;;;;10.05;8.90;;;;;;;26.95;60.63;99931.70;1635726;86;22063;-75
2022/09/08 10:44:07;;;;;;;10.20;8.73;;;;;;;26.81;60.24;99925.20;1588644;86;21088;-74
2022/09/08 10:46:58;;;;;;;11.60;9.00;;;;;;;26.73;59.75;99919.34;1626939;86;21160;-74
2022/09/08 10:49:51;;;;;;;12.58;8.88;;;;;;;26.68;59.95;99923.05;1609488;87;21451;-74
2022/09/08 10:52:51;;;;;;;10.43;8.58;;;;;;;26.62;59.64;99919.72;1625293;88;21037;-75
2022/09/08 10:55:44;;;;;;;9.00;7.92;;;;;;;26.59;59.91;99920.89;1627938;87;21077;-75
2022/09/08 10:58:41;;;;;;;8.70;7.80;;;;;;;26.58;59.51;99926.46;1638581;87;21030;-75
2022/09/08 11:01:45;;;;;;;8.88;7.95;;;;;;;26.57;59.49;99920.73;1637416;87;21197;-75
2022/09/08 11:04:50;;;;;;;9.08;8.23;;;;;;;26.54;59.21;99917.05;1631615;87;21041;-75
2022/09/08 11:07:55;;;;;;;11.12;8.43;;;;;;;26.58;59.14;99919.74;1636979;86;21496;-75
2022/09/08 11:10:42;;;;;;;9.45;7.70;;;;;;;26.62;58.95;99911.66;1605886;88;21321;-75
2022/09/08 11:13:17;;;;;;;11.10;8.30;;;;;;;26.62;59.00;99920.55;1623218;88;21639;-75
2022/09/08 11:16:28;;;;;;;8.90;8.00;;;;;;;26.65;59.20;99916.17;1626552;88;21130;-74
2022/09/08 11:19:33;;;;;;;9.50;8.25;;;;;;;26.79;59.16;99915.13;1625913;88;21063;-75
2022/09/08 11:22:34;;;;;;;9.53;8.48;;;;;;;26.95;58.80;99912.88;1593538;89;21050;-75
2022/09/08 11:25:38;;;;;;;9.05;8.13;;;;;;;27.07;58.72;99902.89;1604127;89;21034;-75
2022/09/08 11:28:44;;;;;;;9.30;8.30;;;;;;;27.17;58.57;99905.92;1604274;88;21460;-75
2022/09/08 11:31:50;;;;;;;11.25;8.38;;;;;;;27.17;58.19;99908.09;1603962;88;21312;-75
2022/09/08 11:34:34;;;;;;;9.35;8.13;;;;;;;27.28;57.69;99908.20;1603824;88;21478;-75
2022/09/08 11:37:33;;;;;;;11.70;8.80;;;;;;;27.56;57.75;99895.90;1603052;89;21109;-75
2022/09/08 11:40:26;;;;;;;9.30;8.25;;;;;;;27.88;57.42;99906.62;1604214;89;21148;-74
2022/09/08 11:43:19;;;;;;;9.45;8.18;;;;;;;27.96;56.86;99890.39;1603984;88;21883;-75
2022/09/08 11:46:11;;;;;;;11.90;8.60;;;;;;;27.93;56.23;99882.68;1604191;88;21307;-74
2022/09/08 11:49:13;;;;;;;9.70;8.25;;;;;;;27.79;56.16;99877.55;1623794;87;21065;-75
2022/09/08 11:51:55;;;;;;;8.95;8.13;;;;;;;27.65;56.08;99874.30;1628872;87;21074;-75
2022/09/08 11:54:56;;;;;;;10.95;8.28;;;;;;;27.53;55.78;99868.52;1627727;87;21459;-75
2022/09/08 11:57:47;;;;;;;9.23;8.33;;;;;;;27.47;55.93;99858.47;1628462;87;21539;-75
2022/09/08 12:00:26;;;;;;;9.18;7.90;;;;;;;27.42;56.04;99854.97;1628549;87;21199;-75
2022/09/08 12:03:19;;;;;;;9.23;8.25;;;;;;;27.46;56.50;99836.59;1629318;87;21080;-74
2022/09/08 12:06:13;;;;;;;11.12;8.65;;;;;;;27.53;56.38;99837.05;1600696;87;21662;-74
2022/09/08 12:09:21;;;;;;;12.13;8.50;;;;;;;27.55;56.07;99826.94;1629670;87;21030;-74
2022/09/08 12:12:17;;;;;;;14.35;8.63;;;;;;;27.45;55.81;99820.13;1628670;87;21060;-75
2022/09/08 12:15:01;;;;;;;9.78;8.15;;;;;;;27.31;55.88;99822.58;1628550;86;22072;-75
2022/09/08 12:17:49;;;;;;;12.63;9.15;;;;;;;27.40;56.31;99813.09;1628539;87;21053;-75
2022/09/08 12:20:37;;;;;;;11.38;8.45;;;;;;;27.42;55.98;99807.03;1628935;87;21053;-75
2022/09/08 12:23:34;;;;;;;12.95;8.55;;;;;;;27.23;55.65;99797.07;1610221;87;21490;-75